createdAt,value
2019-04-25T00:00:38.823Z,17.65
2019-04-25T00:01:38.826Z,17.63
2019-04-25T00:02:38.801Z,17.60
2019-04-25T00:03:38.800Z,17.60
2019-04-25T00:04:38.805Z,17.65
2019-04-25T00:05:38.796Z,17.63
2019-04-25T00:06:38.773Z,17.60
2019-04-25T00:07:38.781Z,17.65
2019-04-25T00:08:38.830Z,17.58
2019-04-25T00:09:38.997Z,17.53
2019-04-25T00:10:39.195Z,17.57
2019-04-25T00:11:39.300Z,17.53
2019-04-25T00:12:39.399Z,17.60
2019-04-25T00:13:39.635Z,17.60
2019-04-25T00:14:39.569Z,17.57
2019-04-25T00:15:38.660Z,17.60
2019-04-25T00:16:38.693Z,17.60
2019-04-25T00:17:38.655Z,17.58
2019-04-25T00:18:38.699Z,17.60
2019-04-25T00:19:38.773Z,17.55
2019-04-25T00:20:38.934Z,17.60
2019-04-25T00:21:39.234Z,17.53
2019-04-25T00:22:39.307Z,17.53
2019-04-25T00:23:39.367Z,17.53
2019-04-25T00:24:39.627Z,17.51
2019-04-25T00:25:38.559Z,17.47
2019-04-25T00:26:38.550Z,17.57
2019-04-25T00:27:38.532Z,17.60
2019-04-25T00:28:38.523Z,17.53
2019-04-25T00:29:38.526Z,17.46
2019-04-25T00:30:38.511Z,17.43
2019-04-25T00:31:38.486Z,17.38
2019-04-25T00:32:38.482Z,17.36
2019-04-25T00:33:38.467Z,17.33
2019-04-25T00:34:38.462Z,17.39
2019-04-25T00:35:38.483Z,17.35
2019-04-25T00:36:39.122Z,17.43
2019-04-25T00:37:38.432Z,17.36
2019-04-25T00:38:38.411Z,17.36
2019-04-25T00:39:38.413Z,17.33
2019-04-25T00:40:38.401Z,17.25
2019-04-25T00:41:38.419Z,17.25
2019-04-25T00:42:38.371Z,17.28
2019-04-25T00:43:38.364Z,17.24
2019-04-25T00:44:38.355Z,17.32
2019-04-25T00:45:38.344Z,17.27
2019-04-25T00:46:38.333Z,17.35
2019-04-25T00:47:38.323Z,17.24
2019-04-25T00:48:38.314Z,17.24
2019-04-25T00:49:38.300Z,17.24
2019-04-25T00:50:38.284Z,17.27
2019-04-25T00:51:38.285Z,17.17
2019-04-25T00:52:38.276Z,17.14
2019-04-25T00:53:38.253Z,17.10
2019-04-25T00:54:38.239Z,17.15
2019-04-25T00:55:38.230Z,17.18
2019-04-25T00:56:38.225Z,17.20
2019-04-25T00:57:38.221Z,17.22
2019-04-25T00:58:38.206Z,17.25
2019-04-25T00:59:38.189Z,17.10
2019-04-25T01:00:38.177Z,17.17
2019-04-25T01:01:38.173Z,17.17
2019-04-25T01:02:38.188Z,17.18
2019-04-25T01:03:38.159Z,17.17
2019-04-25T01:04:38.135Z,17.21
2019-04-25T01:05:38.128Z,17.21
2019-04-25T01:06:38.112Z,17.21
2019-04-25T01:07:38.101Z,17.17
2019-04-25T01:08:38.104Z,17.17
2019-04-25T01:09:38.082Z,17.09
2019-04-25T01:10:38.079Z,17.14
2019-04-25T01:11:38.060Z,17.15
2019-04-25T01:12:38.054Z,17.09
2019-04-25T01:13:38.049Z,17.12
2019-04-25T01:14:38.030Z,17.12
2019-04-25T01:15:38.020Z,17.15
2019-04-25T01:16:38.008Z,17.12
2019-04-25T01:17:37.996Z,17.15
2019-04-25T01:18:37.983Z,17.02
2019-04-25T01:19:37.995Z,17.02
2019-04-25T01:20:37.962Z,17.03
2019-04-25T01:21:37.952Z,17.02
2019-04-25T01:22:37.956Z,16.96
2019-04-25T01:23:37.935Z,17.02
2019-04-25T01:24:37.938Z,16.95
2019-04-25T01:25:42.256Z,16.90
2019-04-25T01:26:37.916Z,16.90
2019-04-25T01:27:37.894Z,16.87
2019-04-25T01:28:37.883Z,16.92
2019-04-25T01:29:37.883Z,16.88
2019-04-25T01:30:37.860Z,16.90
2019-04-25T01:31:37.850Z,16.88
2019-04-25T01:32:37.843Z,16.88
2019-04-25T01:33:37.826Z,16.84
2019-04-25T01:34:37.819Z,16.95
2019-04-25T01:35:37.810Z,16.95
2019-04-25T01:36:37.809Z,16.87
2019-04-25T01:37:37.781Z,16.92
2019-04-25T01:38:37.771Z,16.90
2019-04-25T01:39:37.761Z,16.88
2019-04-25T01:40:37.751Z,16.84
2019-04-25T01:41:37.751Z,16.84
2019-04-25T01:42:37.736Z,16.85
2019-04-25T01:43:37.726Z,16.82
2019-04-25T01:44:37.705Z,16.87
2019-04-25T01:45:37.700Z,16.90
2019-04-25T01:46:37.735Z,16.95
2019-04-25T01:47:37.681Z,16.90
2019-04-25T01:48:37.670Z,16.90
2019-04-25T01:49:37.660Z,16.92
2019-04-25T01:50:37.650Z,16.95
2019-04-25T01:51:37.657Z,16.91
2019-04-25T01:52:37.627Z,16.95
2019-04-25T01:53:37.610Z,16.99
2019-04-25T01:54:37.606Z,17.02
2019-04-25T01:55:37.591Z,17.00
2019-04-25T01:56:37.584Z,16.96
2019-04-25T01:57:37.577Z,16.98
2019-04-25T01:58:37.558Z,17.03
2019-04-25T01:59:37.546Z,17.03
2019-04-25T02:00:37.540Z,16.98
2019-04-25T02:01:37.547Z,16.91
2019-04-25T02:02:37.553Z,16.91
2019-04-25T02:03:37.509Z,16.96
2019-04-25T02:04:37.500Z,16.98
2019-04-25T02:05:37.487Z,17.00
2019-04-25T02:06:37.483Z,16.96
2019-04-25T02:07:37.467Z,17.03
2019-04-25T02:08:37.475Z,16.96
2019-04-25T02:09:37.446Z,17.03
2019-04-25T02:10:37.429Z,17.03
2019-04-25T02:11:37.423Z,17.03
2019-04-25T02:12:37.413Z,17.03
2019-04-25T02:13:37.405Z,16.80
2019-04-25T02:14:37.401Z,16.60
2019-04-25T02:15:37.380Z,16.48
2019-04-25T02:16:37.375Z,16.54
2019-04-25T02:17:37.354Z,16.50
2019-04-25T02:18:37.348Z,16.34
2019-04-25T02:19:37.345Z,16.30
2019-04-25T02:20:39.006Z,16.33
2019-04-25T02:21:37.320Z,16.25
2019-04-25T02:22:37.306Z,16.27
2019-04-25T02:23:37.303Z,16.22
2019-04-25T02:24:37.285Z,16.26
2019-04-25T02:25:37.282Z,16.23
2019-04-25T02:26:37.263Z,16.22
2019-04-25T02:27:37.252Z,16.29
2019-04-25T02:28:37.236Z,16.32
2019-04-25T02:29:37.239Z,16.34
2019-04-25T02:30:37.223Z,16.33
2019-04-25T02:31:37.209Z,16.32
2019-04-25T02:32:37.422Z,16.25
2019-04-25T02:33:37.196Z,16.25
2019-04-25T02:34:37.174Z,16.22
2019-04-25T02:35:37.179Z,16.22
2019-04-25T02:36:37.163Z,16.25
2019-04-25T02:37:37.142Z,16.30
2019-04-25T02:38:37.131Z,16.27
2019-04-25T02:39:37.618Z,16.25
2019-04-25T02:40:37.112Z,16.29
2019-04-25T02:41:37.105Z,16.30
2019-04-25T02:42:37.118Z,16.26
2019-04-25T02:43:37.080Z,16.29
2019-04-25T02:44:37.070Z,16.33
2019-04-25T02:45:37.068Z,16.25
2019-04-25T02:46:37.389Z,16.32
2019-04-25T02:47:37.040Z,16.25
2019-04-25T02:48:37.049Z,16.25
2019-04-25T02:49:39.695Z,16.30
2019-04-25T02:50:37.001Z,16.30
2019-04-25T02:51:36.996Z,16.37
2019-04-25T02:52:36.983Z,16.34
2019-04-25T02:53:37.560Z,16.37
2019-04-25T02:54:36.967Z,16.33
2019-04-25T02:55:37.780Z,16.32
2019-04-25T02:56:38.929Z,16.37
2019-04-25T02:57:36.927Z,16.33
2019-04-25T02:58:36.918Z,16.32
2019-04-25T02:59:37.317Z,16.27
2019-04-25T03:00:51.787Z,16.26
2019-04-25T03:01:37.886Z,16.22
2019-04-25T03:02:37.176Z,16.27
2019-04-25T03:03:36.875Z,16.14
2019-04-25T03:04:36.875Z,16.22
2019-04-25T03:05:36.868Z,16.23
2019-04-25T03:06:36.855Z,16.17
2019-04-25T03:07:36.892Z,16.18
2019-04-25T03:08:36.813Z,16.11
2019-04-25T03:09:36.830Z,16.14
2019-04-25T03:10:36.784Z,16.25
2019-04-25T03:11:36.780Z,16.14
2019-04-25T03:12:37.017Z,16.13
2019-04-25T03:13:36.754Z,16.11
2019-04-25T03:14:36.747Z,16.13
2019-04-25T03:15:36.767Z,16.04
2019-04-25T03:16:36.724Z,16.01
2019-04-25T03:17:36.716Z,15.99
2019-04-25T03:18:36.715Z,16.11
2019-04-25T03:19:36.693Z,16.17
2019-04-25T03:20:36.699Z,16.22
2019-04-25T03:21:36.687Z,16.14
2019-04-25T03:22:36.660Z,16.11
2019-04-25T03:23:36.655Z,16.22
2019-04-25T03:24:36.638Z,16.23
2019-04-25T03:25:36.621Z,16.18
2019-04-25T03:26:40.433Z,16.17
2019-04-25T03:27:36.606Z,16.18
2019-04-25T03:28:36.589Z,16.18
2019-04-25T03:29:36.578Z,16.16
2019-04-25T03:30:36.578Z,16.17
2019-04-25T03:31:36.573Z,16.16
2019-04-25T03:32:36.570Z,16.11
2019-04-25T03:33:38.344Z,16.14
2019-04-25T03:34:36.532Z,16.18
2019-04-25T03:35:36.513Z,16.17
2019-04-25T03:36:36.525Z,16.18
2019-04-25T03:37:36.499Z,16.08
2019-04-25T03:38:36.513Z,16.08
2019-04-25T03:39:36.473Z,16.18
2019-04-25T03:40:36.460Z,16.16
2019-04-25T03:41:36.450Z,16.13
2019-04-25T03:42:36.448Z,16.18
2019-04-25T03:43:36.434Z,16.10
2019-04-25T03:44:36.414Z,16.17
2019-04-25T03:45:36.404Z,16.18
2019-04-25T03:46:36.400Z,16.18
2019-04-25T03:47:36.393Z,16.11
2019-04-25T03:48:37.012Z,16.11
2019-04-25T03:49:36.361Z,16.13
2019-04-25T03:50:36.357Z,16.10
2019-04-25T03:51:36.345Z,16.01
2019-04-25T03:52:36.336Z,16.04
2019-04-25T03:53:36.375Z,16.01
2019-04-25T03:54:36.312Z,16.01
2019-04-25T03:55:36.302Z,15.92
2019-04-25T03:56:36.289Z,15.95
2019-04-25T03:57:36.281Z,15.89
2019-04-25T03:58:36.276Z,15.93
2019-04-25T03:59:36.274Z,15.91
2019-04-25T04:00:36.497Z,15.93
2019-04-25T04:01:36.230Z,15.96
2019-04-25T04:02:36.225Z,15.89
2019-04-25T04:03:36.208Z,15.86
2019-04-25T04:04:36.203Z,15.89
2019-04-25T04:05:36.203Z,15.93
2019-04-25T04:06:36.191Z,15.85
2019-04-25T04:07:36.184Z,15.84
2019-04-25T04:08:36.158Z,15.81
2019-04-25T04:09:36.150Z,15.78
2019-04-25T04:10:36.180Z,15.77
2019-04-25T04:11:36.127Z,15.71
2019-04-25T04:12:36.144Z,15.66
2019-04-25T04:13:36.106Z,15.73
2019-04-25T04:14:36.087Z,15.70
2019-04-25T04:15:36.083Z,15.70
2019-04-25T04:16:36.090Z,15.70
2019-04-25T04:17:36.062Z,15.73
2019-04-25T04:18:36.048Z,15.66
2019-04-25T04:19:36.034Z,15.66
2019-04-25T04:20:36.028Z,15.62
2019-04-25T04:21:36.022Z,15.66
2019-04-25T04:22:36.029Z,15.62
2019-04-25T04:23:36.000Z,15.70
2019-04-25T04:24:35.983Z,15.52
2019-04-25T04:25:35.968Z,15.51
2019-04-25T04:26:35.993Z,15.60
2019-04-25T04:27:35.946Z,15.55
2019-04-25T04:28:35.941Z,15.51
2019-04-25T04:29:35.929Z,15.55
2019-04-25T04:30:35.918Z,15.58
2019-04-25T04:31:35.905Z,15.55
2019-04-25T04:32:35.907Z,15.46
2019-04-25T04:33:35.905Z,15.44
2019-04-25T04:34:35.878Z,15.40
2019-04-25T04:35:35.872Z,15.40
2019-04-25T04:36:35.854Z,15.31
2019-04-25T04:37:35.839Z,15.28
2019-04-25T04:38:35.920Z,15.31
2019-04-25T04:39:35.864Z,15.38
2019-04-25T04:40:36.195Z,15.33
2019-04-25T04:41:35.801Z,15.40
2019-04-25T04:42:35.791Z,15.41
2019-04-25T04:43:35.779Z,15.43
2019-04-25T04:44:35.770Z,15.46
2019-04-25T04:45:35.812Z,15.35
2019-04-25T04:46:35.745Z,15.23
2019-04-25T04:47:35.734Z,15.22
2019-04-25T04:48:35.721Z,15.13
2019-04-25T04:49:35.714Z,15.04
2019-04-25T04:50:35.706Z,14.98
2019-04-25T04:51:35.700Z,15.04
2019-04-25T04:52:35.688Z,14.95
2019-04-25T04:53:35.884Z,15.04
2019-04-25T04:54:35.658Z,14.94
2019-04-25T04:55:35.660Z,14.98
2019-04-25T04:56:35.645Z,15.05
2019-04-25T04:57:36.256Z,15.05
2019-04-25T04:58:35.621Z,15.12
2019-04-25T04:59:35.607Z,15.12
2019-04-25T05:00:35.606Z,15.04
2019-04-25T05:01:35.607Z,15.12
2019-04-25T05:02:35.583Z,15.16
2019-04-25T05:03:35.559Z,15.15
2019-04-25T05:04:35.555Z,15.18
2019-04-25T05:05:35.543Z,15.22
2019-04-25T05:06:35.528Z,15.11
2019-04-25T05:07:35.527Z,15.03
2019-04-25T05:08:35.509Z,15.04
2019-04-25T05:09:35.503Z,15.09
2019-04-25T05:10:35.488Z,15.13
2019-04-25T05:11:35.482Z,15.22
2019-04-25T05:12:35.477Z,15.12
2019-04-25T05:13:35.470Z,15.16
2019-04-25T05:14:35.447Z,15.28
2019-04-25T05:15:35.443Z,15.28
2019-04-25T05:16:35.429Z,15.28
2019-04-25T05:17:35.417Z,15.30
2019-04-25T05:18:39.587Z,15.33
2019-04-25T05:19:35.393Z,15.28
2019-04-25T05:20:35.599Z,15.28
2019-04-25T05:21:35.385Z,15.28
2019-04-25T05:22:35.359Z,15.34
2019-04-25T05:23:35.370Z,15.38
2019-04-25T05:24:35.335Z,15.44
2019-04-25T05:25:35.332Z,15.59
2019-04-25T05:26:35.325Z,15.59
2019-04-25T05:27:46.348Z,15.58
2019-04-25T05:28:36.318Z,15.58
2019-04-25T05:29:35.280Z,15.64
2019-04-25T05:30:35.275Z,15.71
2019-04-25T05:31:35.269Z,15.77
2019-04-25T05:32:35.275Z,15.88
2019-04-25T05:33:35.241Z,15.91
2019-04-25T05:34:35.232Z,15.89
2019-04-25T05:35:35.213Z,16.01
2019-04-25T05:36:35.203Z,16.10
2019-04-25T05:37:35.206Z,16.13
2019-04-25T05:38:35.186Z,16.10
2019-04-25T05:39:35.206Z,16.25
2019-04-25T05:40:35.161Z,16.23
2019-04-25T05:41:35.964Z,16.36
2019-04-25T05:42:35.144Z,16.44
2019-04-25T05:43:35.131Z,16.42
2019-04-25T05:44:35.123Z,16.41
2019-04-25T05:45:35.128Z,16.55
2019-04-25T05:46:35.101Z,16.52
2019-04-25T05:47:35.084Z,16.65
2019-04-25T05:48:35.076Z,16.57
2019-04-25T05:49:35.065Z,16.69
2019-04-25T05:50:35.080Z,16.77
2019-04-25T05:51:35.047Z,16.75
2019-04-25T05:52:35.031Z,16.85
2019-04-25T05:53:35.018Z,16.84
2019-04-25T05:54:35.016Z,16.99
2019-04-25T05:55:35.010Z,17.10
2019-04-25T05:56:35.005Z,17.10
2019-04-25T05:57:45.459Z,17.30
2019-04-25T05:58:35.965Z,17.40
2019-04-25T05:59:34.958Z,17.40
2019-04-25T06:00:34.945Z,17.40
2019-04-25T06:01:35.802Z,17.49
2019-04-25T06:02:34.941Z,17.51
2019-04-25T06:03:34.915Z,17.43
2019-04-25T06:04:34.906Z,17.53
2019-04-25T06:05:34.891Z,17.60
2019-04-25T06:06:36.731Z,17.68
2019-04-25T06:07:34.875Z,17.62
2019-04-25T06:08:34.882Z,17.68
2019-04-25T06:09:35.833Z,17.60
2019-04-25T06:10:34.838Z,17.62
2019-04-25T06:11:34.827Z,17.62
2019-04-25T06:12:34.826Z,17.74
2019-04-25T06:13:34.806Z,17.73
2019-04-25T06:14:34.802Z,17.84
2019-04-25T06:15:34.792Z,17.84
2019-04-25T06:16:34.778Z,17.81
2019-04-25T06:17:34.770Z,17.94
2019-04-25T06:18:34.764Z,17.95
2019-04-25T06:19:34.754Z,18.11
2019-04-25T06:20:34.735Z,18.16
2019-04-25T06:21:34.718Z,18.17
2019-04-25T06:22:34.724Z,18.31
2019-04-25T06:23:34.711Z,18.29
2019-04-25T06:24:34.704Z,18.28
2019-04-25T06:25:39.451Z,18.25
2019-04-25T06:26:39.701Z,18.20
2019-04-25T06:27:35.196Z,18.25
2019-04-25T06:28:34.696Z,18.20
2019-04-25T06:29:34.932Z,18.07
2019-04-25T06:30:35.259Z,17.98
2019-04-25T06:31:34.615Z,17.94
2019-04-25T06:32:35.474Z,18.02
2019-04-25T06:33:34.644Z,18.05
2019-04-25T06:34:36.308Z,18.16
2019-04-25T06:35:35.874Z,18.17
2019-04-25T06:36:35.359Z,18.29
2019-04-25T06:37:35.128Z,18.38
2019-04-25T06:38:34.542Z,18.35
2019-04-25T06:39:34.543Z,18.56
2019-04-25T06:40:34.656Z,18.65
2019-04-25T06:41:35.381Z,18.89
2019-04-25T06:42:34.722Z,19.02
2019-04-25T06:43:34.489Z,19.16
2019-04-25T06:44:34.696Z,19.35
2019-04-25T06:45:34.604Z,19.43
2019-04-25T06:46:34.469Z,19.57
2019-04-25T06:47:34.469Z,19.64
2019-04-25T06:48:35.152Z,19.58
2019-04-25T06:49:36.518Z,19.68
2019-04-25T06:50:35.410Z,19.83
2019-04-25T06:51:34.405Z,19.87
2019-04-25T06:52:35.404Z,19.78
2019-04-25T06:53:34.734Z,19.83
2019-04-25T06:54:35.278Z,19.76
2019-04-25T06:55:34.420Z,19.62
2019-04-25T06:56:34.527Z,19.62
2019-04-25T06:57:34.341Z,19.76
2019-04-25T06:58:34.347Z,19.76
2019-04-25T06:59:34.564Z,19.85
2019-04-25T07:00:40.915Z,19.89
2019-04-25T07:01:35.296Z,19.89
2019-04-25T07:02:35.167Z,20.08
2019-04-25T07:03:35.596Z,19.97
2019-04-25T07:04:34.871Z,19.78
2019-04-25T07:05:40.182Z,19.58
2019-04-25T07:06:35.237Z,19.72
2019-04-25T07:07:35.217Z,19.50
2019-04-25T07:08:35.378Z,19.47
2019-04-25T07:09:34.930Z,19.43
2019-04-25T07:10:34.976Z,19.34
2019-04-25T07:11:34.936Z,19.28
2019-04-25T07:12:34.845Z,19.24
2019-04-25T07:13:38.304Z,19.01
2019-04-25T07:14:36.927Z,18.99
2019-04-25T07:15:35.252Z,19.06
2019-04-25T07:16:34.686Z,19.10
2019-04-25T07:17:35.015Z,19.21
2019-04-25T07:18:36.296Z,19.28
2019-04-25T07:19:35.493Z,19.21
2019-04-25T07:20:34.629Z,19.40
2019-04-25T07:21:35.413Z,19.49
2019-04-25T07:22:35.416Z,19.83
2019-04-25T07:23:34.611Z,20.05
2019-04-25T07:24:35.298Z,20.26
2019-04-25T07:25:35.393Z,20.25
2019-04-25T07:26:37.718Z,20.20
2019-04-25T07:27:35.624Z,20.23
2019-04-25T07:28:35.642Z,20.38
2019-04-25T07:29:34.633Z,20.58
2019-04-25T07:30:48.629Z,20.66
2019-04-25T07:31:35.699Z,21.03
2019-04-25T07:32:34.869Z,21.12
2019-04-25T07:33:35.033Z,21.30
2019-04-25T07:34:35.048Z,21.42
2019-04-25T07:35:34.691Z,21.48
2019-04-25T07:36:35.118Z,21.71
2019-04-25T07:37:36.113Z,21.89
2019-04-25T07:38:34.939Z,22.05
2019-04-25T07:39:34.463Z,22.15
2019-04-25T07:40:34.952Z,21.96
2019-04-25T07:41:34.286Z,21.98
2019-04-25T07:42:35.163Z,22.14
2019-04-25T07:43:34.888Z,22.17
2019-04-25T07:44:48.895Z,22.33
2019-04-25T07:45:36.152Z,22.38
2019-04-25T07:46:37.237Z,22.27
2019-04-25T07:47:35.481Z,22.42
2019-04-25T07:48:36.756Z,22.70
2019-04-25T07:49:34.831Z,22.59
2019-04-25T07:50:34.346Z,22.63
2019-04-25T07:51:34.602Z,22.76
2019-04-25T07:52:34.867Z,22.75
2019-04-25T07:53:34.823Z,23.01
2019-04-25T07:54:34.393Z,23.15
2019-04-25T07:55:36.312Z,23.12
2019-04-25T07:56:35.201Z,23.07
2019-04-25T07:57:34.899Z,23.32
2019-04-25T07:58:44.948Z,23.44
2019-04-25T07:59:35.987Z,23.50
2019-04-25T08:00:35.180Z,23.64
2019-04-25T08:01:36.623Z,23.34
2019-04-25T08:02:34.178Z,23.31
2019-04-25T08:03:34.387Z,23.44
2019-04-25T08:04:35.688Z,23.47
2019-04-25T08:05:35.326Z,23.72
2019-04-25T08:06:34.549Z,23.92
2019-04-25T08:07:34.837Z,24.15
2019-04-25T08:08:34.683Z,24.42
2019-04-25T08:09:35.248Z,24.53
2019-04-25T08:10:34.649Z,24.74
2019-04-25T08:11:34.799Z,24.23
2019-04-25T08:12:34.678Z,24.23
2019-04-25T08:13:34.280Z,24.36
2019-04-25T08:14:34.155Z,24.52
2019-04-25T08:15:33.912Z,24.74
2019-04-25T08:16:34.419Z,24.89
2019-04-25T08:17:34.650Z,25.19
2019-04-25T08:18:35.083Z,25.39
2019-04-25T08:19:34.377Z,25.72
2019-04-25T08:20:34.757Z,25.78
2019-04-25T08:21:34.413Z,25.89
2019-04-25T08:22:34.471Z,26.03
2019-04-25T08:23:36.721Z,26.42
2019-04-25T08:24:34.893Z,26.66
2019-04-25T08:25:36.245Z,26.94
2019-04-25T08:26:35.371Z,27.06
2019-04-25T08:27:34.348Z,26.96
2019-04-25T08:28:34.451Z,26.87
2019-04-25T08:29:37.656Z,26.57
2019-04-25T08:30:35.654Z,26.39
2019-04-25T08:31:34.888Z,26.59
2019-04-25T08:32:35.203Z,26.47
2019-04-25T08:33:34.559Z,26.66
2019-04-25T08:34:34.808Z,26.75
2019-04-25T08:35:34.211Z,26.79
2019-04-25T08:36:36.668Z,26.87
2019-04-25T08:37:35.399Z,26.65
2019-04-25T08:38:34.751Z,26.34
2019-04-25T08:39:34.059Z,26.35
2019-04-25T08:40:35.810Z,26.47
2019-04-25T08:41:34.787Z,26.31
2019-04-25T08:42:35.410Z,25.93
2019-04-25T08:43:36.352Z,25.79
2019-04-25T08:44:34.800Z,25.57
2019-04-25T08:45:35.267Z,25.36
2019-04-25T08:46:35.827Z,25.11
2019-04-25T08:47:34.886Z,24.99
2019-04-25T08:48:34.523Z,24.92
2019-04-25T08:49:34.745Z,25.23
2019-04-25T08:50:37.106Z,25.09
2019-04-25T08:51:34.919Z,25.07
2019-04-25T08:52:35.171Z,24.98
2019-04-25T08:53:35.147Z,24.99
2019-04-25T08:54:35.377Z,25.64
2019-04-25T08:55:34.936Z,26.23
2019-04-25T08:56:34.933Z,26.78
2019-04-25T08:57:34.119Z,27.18
2019-04-25T08:58:35.288Z,27.30
2019-04-25T08:59:40.070Z,27.65
2019-04-25T09:00:35.720Z,27.28
2019-04-25T09:01:36.550Z,26.84
2019-04-25T09:02:36.045Z,27.03
2019-04-25T09:03:34.666Z,27.34
2019-04-25T09:04:34.791Z,27.68
2019-04-25T09:05:35.181Z,27.91
2019-04-25T09:06:35.055Z,28.20
2019-04-25T09:07:35.444Z,28.32
2019-04-25T09:08:35.615Z,28.60
2019-04-25T09:09:35.357Z,28.80
2019-04-25T09:10:35.794Z,29.10
2019-04-25T09:11:34.807Z,29.03
2019-04-25T09:12:35.601Z,29.15
2019-04-25T09:13:35.390Z,28.98
2019-04-25T09:14:34.902Z,29.00
2019-04-25T09:15:35.651Z,29.36
2019-04-25T09:16:34.413Z,29.55
2019-04-25T09:17:35.477Z,29.45
2019-04-25T09:18:35.730Z,29.52
2019-04-25T09:19:33.607Z,29.81
2019-04-25T09:20:34.870Z,29.91
2019-04-25T09:21:35.278Z,29.84
2019-04-25T09:22:36.103Z,29.66
2019-04-25T09:23:34.309Z,29.39
2019-04-25T09:24:33.494Z,29.45
2019-04-25T09:25:34.519Z,29.57
2019-04-25T09:26:34.919Z,29.64
2019-04-25T09:27:34.350Z,29.57
2019-04-25T09:28:35.058Z,29.71
2019-04-25T09:29:34.231Z,29.84
2019-04-25T09:30:34.923Z,29.92
2019-04-25T09:31:34.572Z,29.74
2019-04-25T09:32:33.804Z,29.86
2019-04-25T09:33:35.166Z,29.81
2019-04-25T09:34:33.569Z,29.70
2019-04-25T09:35:33.535Z,30.08
2019-04-25T09:36:33.598Z,30.42
2019-04-25T09:37:33.568Z,30.66
2019-04-25T09:38:34.795Z,30.76
2019-04-25T09:39:33.840Z,31.09
2019-04-25T09:40:34.195Z,30.97
2019-04-25T09:41:33.586Z,30.72
2019-04-25T09:42:33.815Z,30.73
2019-04-25T09:43:33.509Z,31.03
2019-04-25T09:44:32.624Z,31.34
2019-04-25T09:45:33.493Z,31.37
2019-04-25T09:46:34.090Z,31.30
2019-04-25T09:47:33.546Z,31.15
2019-04-25T09:48:34.337Z,30.98
2019-04-25T09:49:33.902Z,30.49
2019-04-25T09:50:33.999Z,28.88
2019-04-25T09:51:33.583Z,28.46
2019-04-25T09:52:34.040Z,28.65
2019-04-25T09:53:34.826Z,29.10
2019-04-25T09:54:33.402Z,29.44
2019-04-25T09:55:33.997Z,29.54
2019-04-25T09:56:33.859Z,29.81
2019-04-25T09:57:33.495Z,30.38
2019-04-25T09:58:33.824Z,30.53
2019-04-25T09:59:33.218Z,30.63
2019-04-25T10:00:33.441Z,30.72
2019-04-25T10:01:33.873Z,30.96
2019-04-25T10:02:32.446Z,31.04
2019-04-25T10:03:33.341Z,31.30
2019-04-25T10:04:34.464Z,31.54
2019-04-25T10:05:33.865Z,31.94
2019-04-25T10:06:33.289Z,31.75
2019-04-25T10:07:32.399Z,31.59
2019-04-25T10:08:32.388Z,31.40
2019-04-25T10:09:33.762Z,31.28
2019-04-25T10:10:32.366Z,31.22
2019-04-25T10:11:33.510Z,31.31
2019-04-25T10:12:41.389Z,31.37
2019-04-25T10:13:33.750Z,31.62
2019-04-25T10:14:39.383Z,31.79
2019-04-25T10:15:39.962Z,32.09
2019-04-25T10:16:40.233Z,32.46
2019-04-25T10:17:41.178Z,32.88
2019-04-25T10:18:41.253Z,33.21
2019-04-25T10:19:39.336Z,33.29
2019-04-25T10:20:33.372Z,33.49
2019-04-25T10:21:40.159Z,32.98
2019-04-25T10:22:40.335Z,32.36
2019-04-25T10:23:39.838Z,32.27
2019-04-25T10:24:32.250Z,32.29
2019-04-25T10:25:33.421Z,32.35
2019-04-25T10:26:39.829Z,32.51
2019-04-25T10:27:32.202Z,32.72
2019-04-25T10:28:33.564Z,32.59
2019-04-25T10:29:41.707Z,32.84
2019-04-25T10:30:34.317Z,32.85
2019-04-25T10:31:33.822Z,33.21
2019-04-25T10:32:33.561Z,33.34
2019-04-25T10:33:32.153Z,33.12
2019-04-25T10:34:33.333Z,33.33
2019-04-25T10:35:40.874Z,33.09
2019-04-25T10:36:33.669Z,33.28
2019-04-25T10:37:33.928Z,33.60
2019-04-25T10:38:34.835Z,33.18
2019-04-25T10:39:33.837Z,32.91
2019-04-25T10:40:33.708Z,32.22
2019-04-25T10:41:35.393Z,32.12
2019-04-25T10:42:32.067Z,32.16
2019-04-25T10:43:32.097Z,32.44
2019-04-25T10:44:33.694Z,32.69
2019-04-25T10:45:32.035Z,33.09
2019-04-25T10:46:33.925Z,33.38
2019-04-25T10:47:33.465Z,33.37
2019-04-25T10:48:32.013Z,33.59
2019-04-25T10:49:32.013Z,33.79
2019-04-25T10:50:32.012Z,34.03
2019-04-25T10:51:31.978Z,34.16
2019-04-25T10:52:33.703Z,34.40
2019-04-25T10:53:33.728Z,34.52
2019-04-25T10:54:34.964Z,34.58
2019-04-25T10:55:31.946Z,34.78
2019-04-25T10:56:33.478Z,34.87
2019-04-25T10:57:31.923Z,35.03
2019-04-25T10:58:33.466Z,34.83
2019-04-25T10:59:31.922Z,34.95
2019-04-25T11:00:32.077Z,35.29
2019-04-25T11:01:33.756Z,35.21
2019-04-25T11:02:33.786Z,34.53
2019-04-25T11:03:33.411Z,34.38
2019-04-25T11:04:31.858Z,34.28
2019-04-25T11:05:31.855Z,34.36
2019-04-25T11:06:33.462Z,34.55
2019-04-25T11:07:31.835Z,34.83
2019-04-25T11:08:31.831Z,34.80
2019-04-25T11:09:31.810Z,35.07
2019-04-25T11:10:31.843Z,35.29
2019-04-25T11:11:31.791Z,35.09
2019-04-25T11:12:33.659Z,35.17
2019-04-25T11:13:31.774Z,35.43
2019-04-25T11:14:31.779Z,35.52
2019-04-25T11:15:31.769Z,35.66
2019-04-25T11:16:33.193Z,35.80
2019-04-25T11:17:31.751Z,35.76
2019-04-25T11:18:31.732Z,35.64
2019-04-25T11:19:31.719Z,35.65
2019-04-25T11:20:31.727Z,35.91
2019-04-25T11:21:33.305Z,36.15
2019-04-25T11:22:31.719Z,36.06
2019-04-25T11:23:31.691Z,36.19
2019-04-25T11:24:31.674Z,36.22
2019-04-25T11:25:31.663Z,36.27
2019-04-25T11:26:34.426Z,36.27
2019-04-25T11:27:31.668Z,36.37
2019-04-25T11:28:31.663Z,36.68
2019-04-25T11:29:31.626Z,36.60
2019-04-25T11:30:31.619Z,36.12
2019-04-25T11:31:31.662Z,36.23
2019-04-25T11:32:31.609Z,36.13
2019-04-25T11:33:31.594Z,36.27
2019-04-25T11:34:31.599Z,36.28
2019-04-25T11:35:31.583Z,35.93
2019-04-25T11:36:31.574Z,35.69
2019-04-25T11:37:31.559Z,35.84
2019-04-25T11:38:31.561Z,35.95
2019-04-25T11:39:31.548Z,36.11
2019-04-25T11:40:31.538Z,36.28
2019-04-25T11:41:31.519Z,36.59
2019-04-25T11:42:31.509Z,36.67
2019-04-25T11:43:31.507Z,36.79
2019-04-25T11:44:31.504Z,36.86
2019-04-25T11:45:31.489Z,37.13
2019-04-25T11:46:32.967Z,37.06
2019-04-25T11:47:31.473Z,37.08
2019-04-25T11:48:31.459Z,37.11
2019-04-25T11:49:31.487Z,37.33
2019-04-25T11:50:31.443Z,37.40
2019-04-25T11:51:31.437Z,37.40
2019-04-25T11:52:31.422Z,37.15
2019-04-25T11:53:31.432Z,37.23
2019-04-25T11:54:31.400Z,37.39
2019-04-25T11:55:31.426Z,37.50
2019-04-25T11:56:31.388Z,37.34
2019-04-25T11:57:31.373Z,37.23
2019-04-25T11:58:31.373Z,37.33
2019-04-25T11:59:31.376Z,37.38
2019-04-25T12:00:31.363Z,37.31
2019-04-25T12:01:31.354Z,37.35
2019-04-25T12:02:31.335Z,37.23
2019-04-25T12:03:31.323Z,37.15
2019-04-25T12:04:31.315Z,37.09
2019-04-25T12:05:31.304Z,37.12
2019-04-25T12:06:31.311Z,36.79
2019-04-25T12:07:31.287Z,36.93
2019-04-25T12:08:31.274Z,36.94
2019-04-25T12:09:31.269Z,36.64
2019-04-25T12:10:31.260Z,36.89
2019-04-25T12:11:31.263Z,36.94
2019-04-25T12:12:31.241Z,37.08
2019-04-25T12:13:31.239Z,37.18
2019-04-25T12:14:31.229Z,37.35
2019-04-25T12:15:31.212Z,37.53
2019-04-25T12:16:31.211Z,37.69
2019-04-25T12:17:31.201Z,37.84
2019-04-25T12:18:33.425Z,37.87
2019-04-25T12:19:35.876Z,37.69
2019-04-25T12:20:33.684Z,37.31
2019-04-25T12:21:31.179Z,37.20
2019-04-25T12:22:31.150Z,37.30
2019-04-25T12:23:31.140Z,37.39
2019-04-25T12:24:31.135Z,37.43
2019-04-25T12:25:31.117Z,37.40
2019-04-25T12:26:31.113Z,37.46
2019-04-25T12:27:31.108Z,37.70
2019-04-25T12:28:31.092Z,37.85
2019-04-25T12:29:31.102Z,37.91
2019-04-25T12:30:38.192Z,37.13
2019-04-25T12:31:32.064Z,36.86
2019-04-25T12:32:31.060Z,35.89
2019-04-25T12:33:31.053Z,35.83
2019-04-25T12:34:31.075Z,35.95
2019-04-25T12:35:31.031Z,36.30
2019-04-25T12:36:31.028Z,36.22
2019-04-25T12:37:31.011Z,36.33
2019-04-25T12:38:31.007Z,36.31
2019-04-25T12:39:31.006Z,36.52
2019-04-25T12:40:31.029Z,36.60
2019-04-25T12:41:30.977Z,36.65
2019-04-25T12:42:30.969Z,36.72
2019-04-25T12:43:30.963Z,36.93
2019-04-25T12:44:30.989Z,37.15
2019-04-25T12:45:30.936Z,37.05
2019-04-25T12:46:30.928Z,36.72
2019-04-25T12:47:30.920Z,36.53
2019-04-25T12:48:30.913Z,36.91
2019-04-25T12:49:30.930Z,37.28
2019-04-25T12:50:30.896Z,37.47
2019-04-25T12:51:30.883Z,37.16
2019-04-25T12:52:30.874Z,37.24